createdAt,value
2023-04-13T02:29:36.915Z,62.98
2023-04-13T02:44:45.320Z,64.53
2023-04-13T03:39:49.479Z,64.98
2023-04-13T03:41:43.479Z,65.05
2023-04-13T03:43:01.284Z,64.50
2023-04-13T03:47:28.924Z,63.91
2023-04-13T05:40:10.007Z,50.09
2023-04-13T05:41:15.306Z,49.15
2023-04-13T05:42:45.963Z,48.64
2023-04-13T05:44:29.460Z,48.48
2023-04-13T05:45:33.764Z,47.11
2023-04-13T05:46:40.223Z,46.74
2023-04-13T06:35:36.434Z,36.15
2023-04-13T06:36:41.767Z,35.27
2023-04-13T06:37:50.394Z,34.54
2023-04-13T06:40:49.083Z,33.61
2023-04-13T06:47:41.320Z,31.68
2023-04-13T06:48:47.909Z,31.80
2023-04-13T06:49:52.316Z,32.24
2023-04-13T06:50:57.246Z,32.02
2023-04-13T06:52:44.186Z,32.10
2023-04-13T06:55:06.456Z,31.67
2023-04-13T06:56:14.542Z,31.62
2023-04-13T06:58:36.713Z,30.65
2023-04-13T06:59:41.148Z,30.14
2023-04-13T07:00:43.372Z,30.13
2023-04-13T07:01:46.026Z,30.40
2023-04-13T07:02:50.871Z,29.57
2023-04-13T07:03:55.506Z,30.07
2023-04-13T07:05:00.798Z,29.80
2023-04-13T07:06:06.413Z,30.06
2023-04-13T07:07:09.835Z,31.06
2023-04-13T07:08:13.153Z,30.88
2023-04-13T07:09:17.356Z,31.31
2023-04-13T07:10:20.539Z,31.89
2023-04-13T07:11:22.374Z,32.11
2023-04-13T07:12:27.843Z,32.01
2023-04-13T07:13:29.618Z,32.21
2023-04-13T07:14:36.061Z,31.80
2023-04-13T07:15:40.061Z,32.23
2023-04-13T07:16:42.359Z,31.59
2023-04-13T07:17:46.795Z,31.96
2023-04-13T07:18:49.088Z,32.20
2023-04-13T07:19:51.361Z,32.51
2023-04-13T07:20:53.782Z,32.38
2023-04-13T07:22:00.641Z,32.85
2023-04-13T07:23:04.042Z,32.72
2023-04-13T07:24:06.522Z,32.23
2023-04-13T07:25:11.637Z,31.61
2023-04-13T07:26:15.381Z,32.70
2023-04-13T07:27:19.099Z,31.88
2023-04-13T07:28:22.343Z,31.36
2023-04-13T07:29:26.944Z,31.06
2023-04-13T07:30:33.877Z,31.78
2023-04-13T07:31:35.879Z,31.23
2023-04-13T07:32:39.486Z,31.25
2023-04-13T07:33:41.503Z,31.40
2023-04-13T07:34:44.528Z,31.85
2023-04-13T07:35:46.465Z,31.30
2023-04-13T07:36:49.007Z,31.19
2023-04-13T07:37:54.130Z,30.86
2023-04-13T07:38:57.611Z,31.58
2023-04-13T07:40:00.578Z,31.16
2023-04-13T07:41:05.444Z,30.94
2023-04-13T07:42:16.063Z,31.01
2023-04-13T07:43:26.385Z,30.98
2023-04-13T07:44:31.032Z,30.95
2023-04-13T07:45:33.192Z,31.29
2023-04-13T07:46:36.331Z,31.03
2023-04-13T07:47:42.160Z,31.03
2023-04-13T07:48:45.122Z,31.03
2023-04-13T07:50:08.325Z,30.98
2023-04-13T07:51:18.743Z,30.87
2023-04-13T07:52:29.450Z,31.30
2023-04-13T07:53:33.031Z,31.49
2023-04-13T07:54:36.595Z,31.68
2023-04-13T07:55:41.260Z,31.91
2023-04-13T07:56:43.791Z,31.79
2023-04-13T07:57:48.991Z,31.77
2023-04-13T07:58:51.118Z,31.70
2023-04-13T07:59:53.618Z,31.96
2023-04-13T08:00:56.125Z,32.27
2023-04-13T08:01:58.893Z,32.39
2023-04-13T08:03:44.327Z,32.58
2023-04-13T08:04:54.829Z,32.37
2023-04-13T08:06:07.455Z,32.21
2023-04-13T08:07:09.786Z,31.94
2023-04-13T08:08:13.219Z,31.84
2023-04-13T08:09:16.854Z,31.97
2023-04-13T08:10:19.114Z,31.95
2023-04-13T08:11:47.396Z,31.93
2023-04-13T08:12:51.423Z,31.69
2023-04-13T08:13:55.493Z,31.67
2023-04-13T08:14:58.356Z,31.96
2023-04-13T08:16:02.321Z,31.80
2023-04-13T08:17:06.413Z,31.98
2023-04-13T08:18:11.384Z,32.33
2023-04-13T08:21:32.526Z,32.24
2023-04-13T08:25:25.510Z,31.43
2023-04-13T08:31:33.090Z,30.91
2023-04-13T08:35:56.883Z,30.72
2023-04-13T08:36:59.298Z,30.33
2023-04-13T08:38:10.105Z,30.61
2023-04-13T08:39:31.625Z,30.45
2023-04-13T08:40:37.996Z,30.37
2023-04-13T08:41:47.701Z,30.29
2023-04-13T08:43:21.488Z,29.96
2023-04-13T08:44:24.563Z,29.71
2023-04-13T08:45:30.707Z,29.64
2023-04-13T08:48:23.909Z,28.79
2023-04-13T08:49:28.805Z,29.38
2023-04-13T08:50:56.896Z,28.81
2023-04-13T08:52:04.938Z,28.88
2023-04-13T08:53:07.651Z,28.78
2023-04-13T08:54:09.926Z,28.71
2023-04-13T08:55:12.982Z,28.51
2023-04-13T08:56:16.147Z,27.97
2023-04-13T08:57:23.786Z,28.11
2023-04-13T08:58:33.754Z,28.29
2023-04-13T08:59:42.175Z,28.70
2023-04-13T09:00:45.913Z,28.54
2023-04-13T09:01:49.475Z,28.59
2023-04-13T09:03:05.414Z,28.59
2023-04-13T09:04:18.018Z,28.35
2023-04-13T09:05:24.025Z,28.24
2023-04-13T09:06:35.793Z,28.57
2023-04-13T09:07:43.759Z,28.78
2023-04-13T09:08:49.609Z,28.51
2023-04-13T09:09:54.255Z,28.50
2023-04-13T09:10:57.395Z,29.31
2023-04-13T09:11:59.411Z,29.22
2023-04-13T09:13:04.108Z,29.48
2023-04-13T09:14:06.464Z,29.73
2023-04-13T09:15:14.063Z,29.70
2023-04-13T09:16:24.841Z,29.49
2023-04-13T09:17:34.985Z,30.03
2023-04-13T09:18:37.280Z,30.18
2023-04-13T09:19:44.751Z,30.28
2023-04-13T09:20:58.535Z,29.31
2023-04-13T09:24:24.504Z,30.25
2023-04-13T09:25:31.003Z,30.03
2023-04-13T09:37:48.163Z,28.97
2023-04-13T09:40:55.396Z,28.49
2023-04-13T09:53:19.368Z,28.06
2023-04-13T09:54:27.230Z,28.27
2023-04-13T09:55:32.967Z,28.89
2023-04-13T09:56:47.969Z,28.62
2023-04-13T10:00:16.097Z,29.04
2023-04-13T10:01:23.321Z,29.31
2023-04-13T10:02:27.133Z,28.73
2023-04-13T10:03:34.673Z,28.78
2023-04-13T10:04:46.496Z,28.83
2023-04-13T10:05:59.555Z,28.48
2023-04-13T10:08:27.293Z,28.07
2023-04-13T10:12:20.908Z,27.54
2023-04-13T13:11:09.868Z,29.96
2023-04-13T13:12:15.680Z,29.35
2023-04-13T13:16:03.691Z,29.68
2023-04-13T13:17:09.107Z,29.20
2023-04-13T13:18:50.408Z,29.48
2023-04-13T13:20:16.032Z,29.75
2023-04-13T13:21:22.134Z,29.31
2023-04-13T13:22:38.832Z,29.30
2023-04-13T13:24:24.107Z,29.26
2023-04-13T13:26:22.284Z,29.35
2023-04-13T13:27:58.636Z,29.27
2023-04-13T13:31:39.660Z,29.47
2023-04-13T13:33:13.792Z,29.69
2023-04-13T13:38:02.804Z,30.05
2023-04-13T13:44:29.107Z,29.72
2023-04-13T13:45:56.043Z,29.78
2023-04-13T13:47:02.872Z,29.88
2023-04-13T13:48:06.423Z,29.75
2023-04-13T13:57:06.965Z,30.13
2023-04-13T13:58:14.528Z,30.21
2023-04-13T14:01:04.510Z,30.08
2023-04-13T14:02:43.359Z,30.06
2023-04-13T14:07:22.426Z,29.77
2023-04-13T14:15:24.113Z,30.07
2023-04-13T14:16:55.344Z,29.90
2023-04-13T14:19:51.683Z,30.01
2023-04-13T14:22:50.597Z,30.37
2023-04-13T14:24:47.247Z,30.47
2023-04-13T14:26:00.641Z,30.63
2023-04-13T14:27:29.817Z,30.66
2023-04-13T14:28:44.331Z,30.54
2023-04-13T14:31:45.967Z,30.90
2023-04-13T14:33:01.474Z,30.89
2023-04-13T15:00:31.415Z,31.67
2023-04-13T15:01:40.801Z,31.86
2023-04-13T15:02:50.371Z,31.97
2023-04-13T16:00:27.521Z,35.13
